createdAt,value
2022-09-22T00:03:02.423Z,81.95
2022-09-22T00:08:06.678Z,81.48
2022-09-22T00:13:09.568Z,83.04
2022-09-22T00:18:12.500Z,82.43
2022-09-22T00:23:16.814Z,82.11
2022-09-22T00:28:19.931Z,82.33
2022-09-22T00:33:22.845Z,82.21
2022-09-22T00:38:27.142Z,82.21
2022-09-22T00:43:32.482Z,81.51
2022-09-22T00:48:39.535Z,82.17
2022-09-22T00:53:46.201Z,81.81
2022-09-22T00:58:52.896Z,82.05
2022-09-22T01:03:57.438Z,82.59
2022-09-22T01:09:03.054Z,81.79
2022-09-22T01:14:15.000Z,81.21
2022-09-22T01:19:47.151Z,81.86
2022-09-22T01:25:09.157Z,82.57
2022-09-22T01:30:25.596Z,82.16
2022-09-22T01:35:33.848Z,82.57
2022-09-22T01:40:43.941Z,81.50
2022-09-22T01:45:49.545Z,81.35
2022-09-22T01:50:56.166Z,82.42
2022-09-22T01:56:05.861Z,81.13
2022-09-22T02:01:14.967Z,80.70
2022-09-22T02:06:22.743Z,80.13
2022-09-22T02:11:25.960Z,79.86
2022-09-22T02:16:31.054Z,79.99
2022-09-22T02:21:33.996Z,81.93
2022-09-22T02:26:37.901Z,81.68
2022-09-22T02:31:42.344Z,82.48
2022-09-22T02:36:55.990Z,80.84
2022-09-22T02:42:12.581Z,81.05
2022-09-22T02:47:23.542Z,81.38
2022-09-22T02:52:26.747Z,81.46
2022-09-22T02:57:29.651Z,80.37
2022-09-22T03:02:33.903Z,81.33
2022-09-22T03:07:37.106Z,81.72
2022-09-22T03:13:02.394Z,81.51
2022-09-22T03:18:06.973Z,80.05
2022-09-22T03:23:10.366Z,81.73
2022-09-22T03:28:13.233Z,83.09
2022-09-22T03:33:17.630Z,82.64
2022-09-22T03:38:20.551Z,82.99
2022-09-22T03:43:23.529Z,81.27
2022-09-22T03:48:29.066Z,83.14
2022-09-22T03:53:31.956Z,82.69
2022-09-22T03:58:35.389Z,81.34
2022-09-22T04:03:41.019Z,81.16
2022-09-22T04:08:44.015Z,80.84
2022-09-22T04:13:46.952Z,80.67
2022-09-22T04:18:51.249Z,80.18
2022-09-22T04:23:54.132Z,79.93
2022-09-22T04:28:57.037Z,81.66
2022-09-22T04:34:04.260Z,81.89
2022-09-22T04:39:10.424Z,81.75
2022-09-22T04:44:13.292Z,84.63
2022-09-22T04:49:17.609Z,85.69
2022-09-22T04:54:20.488Z,83.58
2022-09-22T04:59:23.514Z,82.25
2022-09-22T05:04:27.907Z,83.68
2022-09-22T05:09:30.949Z,81.93
2022-09-22T05:14:34.674Z,83.11
2022-09-22T05:19:38.945Z,88.42
2022-09-22T05:24:42.573Z,87.42
2022-09-22T05:29:45.466Z,85.73
2022-09-22T05:34:49.720Z,83.01
2022-09-22T05:39:52.603Z,79.96
2022-09-22T05:44:55.485Z,78.93
2022-09-22T05:49:59.740Z,77.66
2022-09-22T05:55:02.645Z,78.25
2022-09-22T06:00:08.624Z,78.67
2022-09-22T06:05:19.643Z,79.26
2022-09-22T06:10:22.635Z,76.46
2022-09-22T06:15:26.008Z,73.65
2022-09-22T06:20:30.340Z,73.01
2022-09-22T06:25:33.305Z,75.70
2022-09-22T06:30:38.165Z,72.28
2022-09-22T06:35:45.356Z,70.86
2022-09-22T06:40:48.908Z,71.58
2022-09-22T06:45:52.638Z,69.24
2022-09-22T06:50:56.977Z,72.81
2022-09-22T06:56:00.363Z,71.68
2022-09-22T07:01:09.878Z,71.21
2022-09-22T07:06:20.433Z,70.05
2022-09-22T07:11:23.697Z,69.98
2022-09-22T07:16:28.180Z,68.69
2022-09-22T07:21:35.300Z,67.33
2022-09-22T07:26:39.988Z,66.73
2022-09-22T07:31:43.348Z,65.22
2022-09-22T07:36:49.072Z,65.15
2022-09-22T07:41:52.322Z,63.17
2022-09-22T07:46:55.583Z,63.92
2022-09-22T07:51:59.979Z,62.52
2022-09-22T07:57:08.741Z,63.12
2022-09-22T08:02:11.939Z,62.36
2022-09-22T08:07:16.439Z,61.83
2022-09-22T08:12:19.380Z,60.02
2022-09-22T08:17:22.357Z,60.17
2022-09-22T08:22:26.697Z,61.36
2022-09-22T08:27:30.482Z,58.02
2022-09-22T08:32:36.114Z,58.20
2022-09-22T08:37:42.329Z,65.81
2022-09-22T08:42:45.607Z,64.58
2022-09-22T08:48:10.312Z,65.27
2022-09-22T08:53:18.010Z,63.20
2022-09-22T08:58:40.546Z,61.29
2022-09-22T09:03:58.759Z,62.78
2022-09-22T09:09:40.515Z,60.88
2022-09-22T09:15:10.429Z,65.81
2022-09-22T09:20:18.674Z,61.25
2022-09-22T09:25:34.915Z,60.84
2022-09-22T09:30:44.367Z,59.16
2022-09-22T09:35:52.231Z,58.31
2022-09-22T09:41:03.852Z,54.94
2022-09-22T09:46:17.097Z,59.52
2022-09-22T09:51:21.748Z,56.95
2022-09-22T09:56:28.210Z,62.07
2022-09-22T10:01:32.251Z,62.44
2022-09-22T10:06:35.211Z,59.43
2022-09-22T10:11:39.475Z,59.65
2022-09-22T10:16:52.803Z,58.20
2022-09-22T10:22:18.318Z,58.72
2022-09-22T10:27:27.716Z,57.46
2022-09-22T10:32:31.018Z,56.91
2022-09-22T10:37:34.418Z,55.66
2022-09-22T10:42:41.834Z,53.28
2022-09-22T10:47:57.509Z,53.82
2022-09-22T10:53:17.588Z,52.25
2022-09-22T10:58:54.223Z,51.13
2022-09-22T11:04:18.626Z,52.52
2022-09-22T11:09:46.790Z,53.85
2022-09-22T11:15:19.958Z,53.13
2022-09-22T11:20:34.330Z,53.31
2022-09-22T11:25:54.366Z,55.77
2022-09-22T11:30:59.207Z,54.42
2022-09-22T11:36:24.424Z,51.30
2022-09-22T11:41:31.958Z,50.23
2022-09-22T11:46:52.254Z,48.83
2022-09-22T11:52:17.289Z,46.49
2022-09-22T11:57:24.868Z,45.11
2022-09-22T12:02:35.752Z,49.03
2022-09-22T12:07:47.125Z,46.99
2022-09-22T12:12:51.866Z,42.99
2022-09-22T12:18:02.622Z,46.32
2022-09-22T12:23:31.891Z,43.99
2022-09-22T12:28:41.219Z,44.94
2022-09-22T12:33:51.217Z,44.96
2022-09-22T12:38:54.184Z,47.19
2022-09-22T12:44:09.248Z,48.55
2022-09-22T12:49:17.844Z,48.64
2022-09-22T12:54:39.658Z,48.96
2022-09-22T13:00:07.499Z,48.00
2022-09-22T13:05:34.954Z,45.96
2022-09-22T13:11:03.977Z,46.66
2022-09-22T13:16:37.155Z,44.37
2022-09-22T13:21:41.883Z,45.97
2022-09-22T13:26:44.820Z,44.95
2022-09-22T13:31:51.162Z,42.04
2022-09-22T13:37:00.289Z,41.87
2022-09-22T13:42:07.623Z,42.19
2022-09-22T13:47:17.135Z,42.89
2022-09-22T13:52:24.782Z,42.89
2022-09-22T13:57:31.151Z,41.94
2022-09-22T14:02:34.509Z,41.84
2022-09-22T14:07:49.876Z,43.16
2022-09-22T14:13:02.407Z,42.83
2022-09-22T14:18:11.525Z,43.17
2022-09-22T14:23:23.951Z,45.30
2022-09-22T14:28:30.125Z,44.56
2022-09-22T14:33:34.640Z,46.86
2022-09-22T14:38:45.878Z,47.36
2022-09-22T14:43:53.007Z,46.75
2022-09-22T14:48:55.956Z,45.15
2022-09-22T14:54:05.710Z,43.94
2022-09-22T14:59:24.156Z,39.22
2022-09-22T15:04:31.124Z,41.53
2022-09-22T15:09:40.400Z,42.79
2022-09-22T15:14:44.455Z,44.94
2022-09-22T15:19:51.177Z,46.43
2022-09-22T15:24:55.820Z,42.97
2022-09-22T15:29:58.743Z,45.68
2022-09-22T15:35:01.924Z,44.68
2022-09-22T15:40:16.640Z,47.51
2022-09-22T15:45:21.681Z,47.07
2022-09-22T15:50:28.955Z,47.11
2022-09-22T15:55:34.494Z,47.88
2022-09-22T16:00:38.999Z,46.89
2022-09-22T16:05:42.314Z,48.94
2022-09-22T16:10:46.678Z,49.87
2022-09-22T16:15:50.407Z,52.81
2022-09-22T16:20:53.737Z,54.48
2022-09-22T16:25:58.106Z,55.99
2022-09-22T16:31:03.126Z,55.95
2022-09-22T16:36:06.778Z,56.51
2022-09-22T16:41:20.206Z,56.94
2022-09-22T16:46:30.492Z,57.46
2022-09-22T16:51:35.601Z,58.19
2022-09-22T16:56:40.268Z,59.47
2022-09-22T17:01:44.050Z,59.02
2022-09-22T17:06:47.962Z,59.82
2022-09-22T17:11:52.671Z,60.38
2022-09-22T17:16:57.414Z,60.10
2022-09-22T17:22:00.441Z,60.88
2022-09-22T17:27:05.565Z,61.91
2022-09-22T17:32:09.122Z,62.83
2022-09-22T17:37:14.236Z,62.61
2022-09-22T17:42:20.137Z,63.25
2022-09-22T17:47:54.837Z,62.96
2022-09-22T17:53:15.278Z,64.24
2022-09-22T17:58:19.563Z,63.54
2022-09-22T18:03:22.516Z,64.09
2022-09-22T18:08:25.768Z,65.03
2022-09-22T18:13:30.125Z,64.94
2022-09-22T18:18:33.074Z,65.60
2022-09-22T18:23:36.926Z,66.46
2022-09-22T18:28:41.653Z,66.35
2022-09-22T18:33:45.163Z,66.53
2022-09-22T18:38:48.097Z,67.47
2022-09-22T18:43:54.402Z,67.91
2022-09-22T18:49:04.796Z,68.25
2022-09-22T18:54:08.735Z,68.24
2022-09-22T18:59:15.187Z,68.67
2022-09-22T19:04:21.083Z,69.07
2022-09-22T19:09:24.039Z,68.54
2022-09-22T19:14:36.309Z,69.25
2022-09-22T19:19:42.204Z,70.12
2022-09-22T19:24:46.096Z,70.49
2022-09-22T19:29:51.848Z,70.36
2022-09-22T19:34:55.713Z,70.17
2022-09-22T19:39:58.672Z,70.67
2022-09-22T19:45:03.155Z,71.13
2022-09-22T19:50:08.037Z,71.49
2022-09-22T19:55:12.141Z,70.94
2022-09-22T20:00:25.654Z,71.21
2022-09-22T20:05:31.571Z,71.46
2022-09-22T20:10:35.081Z,71.01
2022-09-22T20:15:39.974Z,71.88
2022-09-22T20:20:44.410Z,71.91
2022-09-22T20:25:47.725Z,71.37
2022-09-22T20:30:52.037Z,72.41
2022-09-22T20:35:56.228Z,71.90
2022-09-22T20:41:02.697Z,72.47
2022-09-22T20:46:07.619Z,72.09
2022-09-22T20:51:10.547Z,72.58
2022-09-22T20:56:13.958Z,72.78
2022-09-22T21:01:18.707Z,73.65
2022-09-22T21:06:22.572Z,74.51
2022-09-22T21:11:26.577Z,73.92
2022-09-22T21:16:31.367Z,74.33
2022-09-22T21:21:37.769Z,74.33
2022-09-22T21:26:40.701Z,74.37
2022-09-22T21:31:46.349Z,73.89
2022-09-22T21:36:49.248Z,74.64
2022-09-22T21:41:52.152Z,74.64
2022-09-22T21:46:56.424Z,74.63
2022-09-22T21:52:00.720Z,74.33
2022-09-22T21:57:03.671Z,74.77
2022-09-22T22:02:07.905Z,75.19
2022-09-22T22:07:11.959Z,74.95
2022-09-22T22:12:14.880Z,75.00
2022-09-22T22:17:19.721Z,75.49
2022-09-22T22:22:22.640Z,75.60
2022-09-22T22:27:25.631Z,75.16
2022-09-22T22:32:29.901Z,75.84
2022-09-22T22:37:32.902Z,75.64
2022-09-22T22:42:35.809Z,77.26
2022-09-22T22:47:40.064Z,78.24
2022-09-22T22:52:44.128Z,76.00
2022-09-22T22:57:47.024Z,75.71
2022-09-22T23:02:52.494Z,76.58
2022-09-22T23:07:55.440Z,76.63
2022-09-22T23:12:59.749Z,76.21
2022-09-22T23:18:04.042Z,76.14
2022-09-22T23:23:06.929Z,76.10
2022-09-22T23:28:09.859Z,76.21
2022-09-22T23:33:14.475Z,76.11
2022-09-22T23:38:17.583Z,76.74
2022-09-22T23:43:20.595Z,76.62
2022-09-22T23:48:26.489Z,76.88
2022-09-22T23:53:31.506Z,76.88
2022-09-22T23:58:35.230Z,77.90
